sensor_id;sensor_type;location;lat;lon;timestamp;P1;durP1;ratioP1;P2;durP2;ratioP2
41233;SDS011;26968;42.686;23.352;2022-08-01T00:01:35;5.60;;;3.25;;
41233;SDS011;26968;42.686;23.352;2022-08-01T00:04:00;8.80;;;2.75;;
41233;SDS011;26968;42.686;23.352;2022-08-01T00:06:26;4.53;;;3.10;;
41233;SDS011;26968;42.686;23.352;2022-08-01T00:08:52;9.68;;;3.10;;
41233;SDS011;26968;42.686;23.352;2022-08-01T00:11:17;6.38;;;3.35;;
41233;SDS011;26968;42.686;23.352;2022-08-01T00:13:43;7.40;;;4.35;;
41233;SDS011;26968;42.686;23.352;2022-08-01T00:16:08;5.63;;;4.57;;
41233;SDS011;26968;42.686;23.352;2022-08-01T00:18:33;10.90;;;5.75;;
41233;SDS011;26968;42.686;23.352;2022-08-01T00:21:00;8.63;;;5.72;;
41233;SDS011;26968;42.686;23.352;2022-08-01T00:23:29;10.88;;;5.40;;
41233;SDS011;26968;42.686;23.352;2022-08-01T00:25:54;7.43;;;5.72;;
41233;SDS011;26968;42.686;23.352;2022-08-01T00:28:20;7.88;;;5.70;;
41233;SDS011;26968;42.686;23.352;2022-08-01T00:30:45;11.23;;;5.97;;
41233;SDS011;26968;42.686;23.352;2022-08-01T00:33:11;10.32;;;6.30;;
41233;SDS011;26968;42.686;23.352;2022-08-01T00:35:36;7.10;;;5.95;;
41233;SDS011;26968;42.686;23.352;2022-08-01T00:38:01;7.07;;;6.38;;
41233;SDS011;26968;42.686;23.352;2022-08-01T00:40:27;9.63;;;6.10;;
41233;SDS011;26968;42.686;23.352;2022-08-01T00:42:52;8.95;;;5.55;;
41233;SDS011;26968;42.686;23.352;2022-08-01T00:45:18;12.27;;;6.20;;
41233;SDS011;26968;42.686;23.352;2022-08-01T00:47:44;7.57;;;4.97;;
41233;SDS011;26968;42.686;23.352;2022-08-01T00:50:09;9.63;;;5.60;;
41233;SDS011;26968;42.686;23.352;2022-08-01T00:52:36;7.50;;;5.15;;
41233;SDS011;26968;42.686;23.352;2022-08-01T00:55:02;6.47;;;5.40;;
41233;SDS011;26968;42.686;23.352;2022-08-01T00:57:28;6.10;;;5.25;;
41233;SDS011;26968;42.686;23.352;2022-08-01T00:59:54;6.75;;;4.68;;
41233;SDS011;26968;42.686;23.352;2022-08-01T01:02:21;7.00;;;5.10;;
41233;SDS011;26968;42.686;23.352;2022-08-01T01:04:46;6.10;;;5.47;;
41233;SDS011;26968;42.686;23.352;2022-08-01T01:10:08;9.23;;;5.05;;
41233;SDS011;26968;42.686;23.352;2022-08-01T01:26:59;9.18;;;4.72;;
41233;SDS011;26968;42.686;23.352;2022-08-01T01:29:32;9.43;;;4.90;;
41233;SDS011;26968;42.686;23.352;2022-08-01T01:32:17;6.10;;;5.00;;
41233;SDS011;26968;42.686;23.352;2022-08-01T01:34:45;9.40;;;5.15;;
41233;SDS011;26968;42.686;23.352;2022-08-01T01:37:15;6.38;;;4.40;;
41233;SDS011;26968;42.686;23.352;2022-08-01T01:39:44;8.15;;;4.75;;
41233;SDS011;26968;42.686;23.352;2022-08-01T01:42:13;10.35;;;4.78;;
41233;SDS011;26968;42.686;23.352;2022-08-01T01:44:42;7.68;;;4.93;;
41233;SDS011;26968;42.686;23.352;2022-08-01T01:47:09;8.07;;;4.32;;
41233;SDS011;26968;42.686;23.352;2022-08-01T01:49:37;7.85;;;4.82;;
41233;SDS011;26968;42.686;23.352;2022-08-01T01:52:06;5.88;;;4.75;;
41233;SDS011;26968;42.686;23.352;2022-08-01T01:54:34;6.15;;;4.40;;
41233;SDS011;26968;42.686;23.352;2022-08-01T01:57:04;5.95;;;4.20;;
41233;SDS011;26968;42.686;23.352;2022-08-01T01:59:32;7.90;;;4.22;;
41233;SDS011;26968;42.686;23.352;2022-08-01T02:02:01;10.73;;;4.55;;
41233;SDS011;26968;42.686;23.352;2022-08-01T02:04:28;6.78;;;4.82;;
41233;SDS011;26968;42.686;23.352;2022-08-01T02:06:55;5.53;;;4.05;;
41233;SDS011;26968;42.686;23.352;2022-08-01T02:09:22;16.80;;;6.45;;
41233;SDS011;26968;42.686;23.352;2022-08-01T02:11:49;13.00;;;4.60;;
41233;SDS011;26968;42.686;23.352;2022-08-01T02:14:16;12.05;;;4.05;;
41233;SDS011;26968;42.686;23.352;2022-08-01T02:16:45;12.20;;;4.65;;
41233;SDS011;26968;42.686;23.352;2022-08-01T02:19:18;8.68;;;4.65;;
41233;SDS011;26968;42.686;23.352;2022-08-01T02:24:35;5.13;;;3.97;;
41233;SDS011;26968;42.686;23.352;2022-08-01T02:27:11;12.43;;;3.67;;
41233;SDS011;26968;42.686;23.352;2022-08-01T02:29:41;6.72;;;3.40;;
41233;SDS011;26968;42.686;23.352;2022-08-01T02:32:26;10.13;;;3.00;;
41233;SDS011;26968;42.686;23.352;2022-08-01T02:34:55;7.68;;;3.78;;
41233;SDS011;26968;42.686;23.352;2022-08-01T02:37:26;10.27;;;3.25;;
41233;SDS011;26968;42.686;23.352;2022-08-01T02:39:54;10.88;;;3.80;;
41233;SDS011;26968;42.686;23.352;2022-08-01T02:42:20;11.88;;;4.25;;
41233;SDS011;26968;42.686;23.352;2022-08-01T02:44:48;7.50;;;3.85;;
41233;SDS011;26968;42.686;23.352;2022-08-01T02:47:17;6.43;;;3.97;;
41233;SDS011;26968;42.686;23.352;2022-08-01T02:49:45;8.13;;;3.55;;
41233;SDS011;26968;42.686;23.352;2022-08-01T02:52:14;3.95;;;3.35;;
41233;SDS011;26968;42.686;23.352;2022-08-01T02:54:42;12.52;;;4.05;;
41233;SDS011;26968;42.686;23.352;2022-08-01T02:57:10;10.85;;;4.10;;
41233;SDS011;26968;42.686;23.352;2022-08-01T02:59:38;6.13;;;3.90;;
41233;SDS011;26968;42.686;23.352;2022-08-01T03:02:05;7.32;;;3.78;;
41233;SDS011;26968;42.686;23.352;2022-08-01T03:04:33;6.35;;;3.67;;
41233;SDS011;26968;42.686;23.352;2022-08-01T03:07:00;8.52;;;4.30;;
41233;SDS011;26968;42.686;23.352;2022-08-01T03:09:28;6.63;;;3.60;;
41233;SDS011;26968;42.686;23.352;2022-08-01T03:11:58;9.68;;;3.63;;
41233;SDS011;26968;42.686;23.352;2022-08-01T03:14:26;5.97;;;3.95;;
41233;SDS011;26968;42.686;23.352;2022-08-01T03:16:55;8.43;;;3.72;;
41233;SDS011;26968;42.686;23.352;2022-08-01T03:19:24;11.75;;;3.70;;
41233;SDS011;26968;42.686;23.352;2022-08-01T03:21:53;7.60;;;3.85;;
41233;SDS011;26968;42.686;23.352;2022-08-01T03:24:23;8.85;;;3.80;;
41233;SDS011;26968;42.686;23.352;2022-08-01T03:26:52;6.90;;;3.92;;
41233;SDS011;26968;42.686;23.352;2022-08-01T03:29:21;11.27;;;4.15;;
41233;SDS011;26968;42.686;23.352;2022-08-01T03:31:50;12.18;;;3.75;;
41233;SDS011;26968;42.686;23.352;2022-08-01T03:34:17;8.23;;;4.53;;
41233;SDS011;26968;42.686;23.352;2022-08-01T03:36:48;8.23;;;4.07;;
41233;SDS011;26968;42.686;23.352;2022-08-01T03:39:18;16.58;;;5.47;;
41233;SDS011;26968;42.686;23.352;2022-08-01T03:41:50;5.53;;;3.58;;
41233;SDS011;26968;42.686;23.352;2022-08-01T03:44:20;8.07;;;3.83;;
41233;SDS011;26968;42.686;23.352;2022-08-01T03:46:54;9.65;;;4.10;;
41233;SDS011;26968;42.686;23.352;2022-08-01T03:49:25;7.18;;;4.32;;
41233;SDS011;26968;42.686;23.352;2022-08-01T03:51:56;6.60;;;4.05;;
41233;SDS011;26968;42.686;23.352;2022-08-01T03:54:28;8.63;;;3.97;;
41233;SDS011;26968;42.686;23.352;2022-08-01T03:56:58;5.10;;;3.45;;
41233;SDS011;26968;42.686;23.352;2022-08-01T03:59:25;11.07;;;4.63;;
41233;SDS011;26968;42.686;23.352;2022-08-01T04:01:51;9.82;;;4.70;;
41233;SDS011;26968;42.686;23.352;2022-08-01T04:04:18;11.43;;;5.32;;
41233;SDS011;26968;42.686;23.352;2022-08-01T04:06:44;14.77;;;5.00;;
41233;SDS011;26968;42.686;23.352;2022-08-01T04:09:10;7.70;;;5.15;;
41233;SDS011;26968;42.686;23.352;2022-08-01T04:11:37;12.63;;;5.03;;
41233;SDS011;26968;42.686;23.352;2022-08-01T04:14:03;7.78;;;4.90;;
41233;SDS011;26968;42.686;23.352;2022-08-01T04:16:28;9.20;;;5.30;;
41233;SDS011;26968;42.686;23.352;2022-08-01T04:18:54;9.98;;;5.07;;
41233;SDS011;26968;42.686;23.352;2022-08-01T04:21:20;7.85;;;5.03;;
41233;SDS011;26968;42.686;23.352;2022-08-01T04:23:50;16.92;;;6.07;;
41233;SDS011;26968;42.686;23.352;2022-08-01T04:26:18;15.23;;;6.53;;
41233;SDS011;26968;42.686;23.352;2022-08-01T04:28:45;18.75;;;6.68;;
41233;SDS011;26968;42.686;23.352;2022-08-01T04:31:12;10.32;;;5.70;;
41233;SDS011;26968;42.686;23.352;2022-08-01T04:33:42;16.80;;;6.13;;
41233;SDS011;26968;42.686;23.352;2022-08-01T04:36:11;16.73;;;6.85;;
41233;SDS011;26968;42.686;23.352;2022-08-01T04:38:39;14.38;;;6.30;;
41233;SDS011;26968;42.686;23.352;2022-08-01T04:41:07;16.20;;;7.55;;
41233;SDS011;26968;42.686;23.352;2022-08-01T04:43:39;13.52;;;7.68;;
41233;SDS011;26968;42.686;23.352;2022-08-01T04:46:06;17.17;;;7.25;;
41233;SDS011;26968;42.686;23.352;2022-08-01T04:48:34;14.23;;;7.85;;
41233;SDS011;26968;42.686;23.352;2022-08-01T04:51:02;13.65;;;7.55;;
41233;SDS011;26968;42.686;23.352;2022-08-01T04:53:28;14.63;;;7.05;;
41233;SDS011;26968;42.686;23.352;2022-08-01T04:55:54;17.73;;;7.40;;
41233;SDS011;26968;42.686;23.352;2022-08-01T04:58:20;19.65;;;7.32;;
41233;SDS011;26968;42.686;23.352;2022-08-01T05:00:46;22.65;;;7.97;;
41233;SDS011;26968;42.686;23.352;2022-08-01T05:03:11;17.92;;;8.10;;
41233;SDS011;26968;42.686;23.352;2022-08-01T05:05:37;15.90;;;7.55;;
41233;SDS011;26968;42.686;23.352;2022-08-01T05:08:02;16.42;;;8.18;;
41233;SDS011;26968;42.686;23.352;2022-08-01T05:10:28;23.67;;;7.95;;
41233;SDS011;26968;42.686;23.352;2022-08-01T05:12:54;15.43;;;7.60;;
41233;SDS011;26968;42.686;23.352;2022-08-01T05:15:19;22.15;;;7.13;;
41233;SDS011;26968;42.686;23.352;2022-08-01T05:17:46;18.42;;;6.20;;
41233;SDS011;26968;42.686;23.352;2022-08-01T05:20:11;17.20;;;6.55;;
41233;SDS011;26968;42.686;23.352;2022-08-01T05:22:37;11.30;;;6.07;;
41233;SDS011;26968;42.686;23.352;2022-08-01T05:25:03;15.02;;;6.55;;
41233;SDS011;26968;42.686;23.352;2022-08-01T05:27:32;12.40;;;5.80;;
41233;SDS011;26968;42.686;23.352;2022-08-01T05:30:03;7.68;;;4.60;;
41233;SDS011;26968;42.686;23.352;2022-08-01T05:32:29;9.05;;;5.40;;
41233;SDS011;26968;42.686;23.352;2022-08-01T05:34:56;9.77;;;5.07;;
41233;SDS011;26968;42.686;23.352;2022-08-01T05:37:22;17.20;;;6.28;;
41233;SDS011;26968;42.686;23.352;2022-08-01T05:39:47;7.90;;;4.43;;
41233;SDS011;26968;42.686;23.352;2022-08-01T05:42:12;12.98;;;5.32;;
41233;SDS011;26968;42.686;23.352;2022-08-01T05:44:38;10.60;;;5.10;;
41233;SDS011;26968;42.686;23.352;2022-08-01T05:47:03;10.65;;;4.60;;
41233;SDS011;26968;42.686;23.352;2022-08-01T05:49:29;11.48;;;4.93;;
41233;SDS011;26968;42.686;23.352;2022-08-01T05:51:54;10.13;;;4.82;;
41233;SDS011;26968;42.686;23.352;2022-08-01T05:54:20;17.10;;;5.40;;
41233;SDS011;26968;42.686;23.352;2022-08-01T05:56:45;11.68;;;4.47;;
41233;SDS011;26968;42.686;23.352;2022-08-01T05:59:11;11.93;;;4.60;;
41233;SDS011;26968;42.686;23.352;2022-08-01T06:01:36;9.13;;;4.20;;
41233;SDS011;26968;42.686;23.352;2022-08-01T06:04:02;12.93;;;4.80;;
41233;SDS011;26968;42.686;23.352;2022-08-01T06:06:27;11.57;;;4.70;;
41233;SDS011;26968;42.686;23.352;2022-08-01T06:08:52;10.60;;;4.10;;
41233;SDS011;26968;42.686;23.352;2022-08-01T06:11:18;6.95;;;3.75;;
41233;SDS011;26968;42.686;23.352;2022-08-01T06:13:44;9.10;;;3.78;;
41233;SDS011;26968;42.686;23.352;2022-08-01T06:16:09;7.05;;;3.40;;
41233;SDS011;26968;42.686;23.352;2022-08-01T06:18:34;6.05;;;3.83;;
41233;SDS011;26968;42.686;23.352;2022-08-01T06:21:00;7.82;;;3.65;;
41233;SDS011;26968;42.686;23.352;2022-08-01T06:23:25;9.27;;;3.63;;
41233;SDS011;26968;42.686;23.352;2022-08-01T06:25:54;10.63;;;3.50;;
41233;SDS011;26968;42.686;23.352;2022-08-01T06:28:20;11.73;;;4.07;;
41233;SDS011;26968;42.686;23.352;2022-08-01T06:30:46;10.07;;;3.95;;
41233;SDS011;26968;42.686;23.352;2022-08-01T06:33:12;10.35;;;3.38;;
41233;SDS011;26968;42.686;23.352;2022-08-01T06:35:37;9.48;;;3.75;;
41233;SDS011;26968;42.686;23.352;2022-08-01T06:38:03;8.73;;;3.55;;
41233;SDS011;26968;42.686;23.352;2022-08-01T06:40:28;8.38;;;2.75;;
41233;SDS011;26968;42.686;23.352;2022-08-01T06:42:54;7.93;;;2.63;;
41233;SDS011;26968;42.686;23.352;2022-08-01T06:45:19;6.25;;;2.85;;
41233;SDS011;26968;42.686;23.352;2022-08-01T06:47:47;5.38;;;2.85;;
41233;SDS011;26968;42.686;23.352;2022-08-01T06:50:13;14.05;;;2.80;;
41233;SDS011;26968;42.686;23.352;2022-08-01T06:52:40;6.85;;;2.90;;
41233;SDS011;26968;42.686;23.352;2022-08-01T06:55:06;2.70;;;2.30;;
41233;SDS011;26968;42.686;23.352;2022-08-01T06:57:33;9.18;;;2.92;;
41233;SDS011;26968;42.686;23.352;2022-08-01T07:00:00;7.10;;;2.75;;
41233;SDS011;26968;42.686;23.352;2022-08-01T07:02:28;6.10;;;3.40;;
41233;SDS011;26968;42.686;23.352;2022-08-01T07:04:54;7.15;;;2.97;;
41233;SDS011;26968;42.686;23.352;2022-08-01T07:07:19;7.07;;;2.88;;
41233;SDS011;26968;42.686;23.352;2022-08-01T07:09:45;9.70;;;2.80;;
41233;SDS011;26968;42.686;23.352;2022-08-01T07:12:10;6.97;;;3.30;;
41233;SDS011;26968;42.686;23.352;2022-08-01T07:14:36;3.75;;;2.67;;
41233;SDS011;26968;42.686;23.352;2022-08-01T07:17:01;5.53;;;2.53;;
41233;SDS011;26968;42.686;23.352;2022-08-01T07:19:27;8.35;;;3.13;;
41233;SDS011;26968;42.686;23.352;2022-08-01T07:21:53;7.22;;;3.03;;
41233;SDS011;26968;42.686;23.352;2022-08-01T07:24:18;8.02;;;3.13;;
41233;SDS011;26968;42.686;23.352;2022-08-01T07:26:45;9.27;;;3.33;;
41233;SDS011;26968;42.686;23.352;2022-08-01T07:29:11;5.07;;;2.50;;
41233;SDS011;26968;42.686;23.352;2022-08-01T07:31:37;4.63;;;2.97;;
41233;SDS011;26968;42.686;23.352;2022-08-01T07:34:03;11.40;;;2.80;;
41233;SDS011;26968;42.686;23.352;2022-08-01T07:36:28;4.43;;;3.42;;
41233;SDS011;26968;42.686;23.352;2022-08-01T07:38:54;4.55;;;3.20;;
41233;SDS011;26968;42.686;23.352;2022-08-01T07:41:20;5.47;;;3.10;;
41233;SDS011;26968;42.686;23.352;2022-08-01T07:43:46;5.45;;;3.50;;
41233;SDS011;26968;42.686;23.352;2022-08-01T07:46:13;10.55;;;3.15;;
41233;SDS011;26968;42.686;23.352;2022-08-01T07:48:39;5.15;;;3.17;;
41233;SDS011;26968;42.686;23.352;2022-08-01T07:51:05;13.30;;;2.88;;
41233;SDS011;26968;42.686;23.352;2022-08-01T07:53:30;4.00;;;2.53;;
41233;SDS011;26968;42.686;23.352;2022-08-01T07:55:55;8.48;;;2.97;;
41233;SDS011;26968;42.686;23.352;2022-08-01T07:58:21;6.13;;;3.20;;
41233;SDS011;26968;42.686;23.352;2022-08-01T08:00:46;5.32;;;3.30;;
41233;SDS011;26968;42.686;23.352;2022-08-01T08:03:12;8.15;;;3.05;;
41233;SDS011;26968;42.686;23.352;2022-08-01T08:05:37;5.72;;;2.83;;
41233;SDS011;26968;42.686;23.352;2022-08-01T08:08:06;5.03;;;2.47;;
41233;SDS011;26968;42.686;23.352;2022-08-01T08:10:33;5.68;;;2.90;;
41233;SDS011;26968;42.686;23.352;2022-08-01T08:12:58;12.23;;;3.20;;
41233;SDS011;26968;42.686;23.352;2022-08-01T08:15:25;5.07;;;3.33;;
41233;SDS011;26968;42.686;23.352;2022-08-01T08:17:51;7.78;;;3.42;;
41233;SDS011;26968;42.686;23.352;2022-08-01T08:20:16;7.40;;;3.10;;
41233;SDS011;26968;42.686;23.352;2022-08-01T08:22:42;4.53;;;2.70;;
41233;SDS011;26968;42.686;23.352;2022-08-01T08:25:07;6.13;;;3.25;;
41233;SDS011;26968;42.686;23.352;2022-08-01T08:27:33;7.10;;;3.17;;
41233;SDS011;26968;42.686;23.352;2022-08-01T08:29:59;4.40;;;2.90;;
41233;SDS011;26968;42.686;23.352;2022-08-01T08:32:26;7.15;;;2.97;;
41233;SDS011;26968;42.686;23.352;2022-08-01T08:34:51;7.03;;;3.00;;
41233;SDS011;26968;42.686;23.352;2022-08-01T08:37:16;5.60;;;3.30;;
41233;SDS011;26968;42.686;23.352;2022-08-01T08:39:42;10.52;;;3.78;;
41233;SDS011;26968;42.686;23.352;2022-08-01T08:42:10;3.63;;;2.63;;
41233;SDS011;26968;42.686;23.352;2022-08-01T08:44:36;5.85;;;2.75;;
41233;SDS011;26968;42.686;23.352;2022-08-01T08:47:03;9.82;;;2.85;;
41233;SDS011;26968;42.686;23.352;2022-08-01T08:49:32;5.55;;;3.20;;
41233;SDS011;26968;42.686;23.352;2022-08-01T08:52:00;6.65;;;3.05;;
41233;SDS011;26968;42.686;23.352;2022-08-01T08:54:26;9.10;;;2.85;;
41233;SDS011;26968;42.686;23.352;2022-08-01T08:56:54;6.93;;;2.78;;
41233;SDS011;26968;42.686;23.352;2022-08-01T08:59:20;9.48;;;2.92;;
41233;SDS011;26968;42.686;23.352;2022-08-01T09:01:46;7.38;;;2.85;;
41233;SDS011;26968;42.686;23.352;2022-08-01T09:04:12;7.25;;;2.67;;
41233;SDS011;26968;42.686;23.352;2022-08-01T09:06:39;7.15;;;2.78;;
41233;SDS011;26968;42.686;23.352;2022-08-01T09:09:05;5.72;;;2.63;;
41233;SDS011;26968;42.686;23.352;2022-08-01T09:11:31;6.10;;;2.88;;
41233;SDS011;26968;42.686;23.352;2022-08-01T09:14:04;5.70;;;2.45;;
41233;SDS011;26968;42.686;23.352;2022-08-01T09:16:33;4.32;;;2.60;;
41233;SDS011;26968;42.686;23.352;2022-08-01T09:19:11;5.50;;;2.55;;
41233;SDS011;26968;42.686;23.352;2022-08-01T09:21:39;4.28;;;2.47;;
41233;SDS011;26968;42.686;23.352;2022-08-01T09:24:19;5.85;;;2.53;;
41233;SDS011;26968;42.686;23.352;2022-08-01T09:26:45;5.10;;;2.72;;
41233;SDS011;26968;42.686;23.352;2022-08-01T09:29:16;5.30;;;2.88;;
41233;SDS011;26968;42.686;23.352;2022-08-01T09:31:43;10.90;;;3.00;;
41233;SDS011;26968;42.686;23.352;2022-08-01T09:34:10;4.47;;;2.47;;
41233;SDS011;26968;42.686;23.352;2022-08-01T09:36:46;9.93;;;3.20;;
41233;SDS011;26968;42.686;23.352;2022-08-01T09:39:17;9.80;;;2.70;;
41233;SDS011;26968;42.686;23.352;2022-08-01T09:41:47;5.10;;;2.47;;
41233;SDS011;26968;42.686;23.352;2022-08-01T09:44:13;5.20;;;2.38;;
41233;SDS011;26968;42.686;23.352;2022-08-01T09:46:49;7.30;;;2.65;;
41233;SDS011;26968;42.686;23.352;2022-08-01T09:49:16;4.50;;;2.42;;
41233;SDS011;26968;42.686;23.352;2022-08-01T09:51:53;6.55;;;3.13;;
41233;SDS011;26968;42.686;23.352;2022-08-01T09:54:27;4.93;;;2.28;;
41233;SDS011;26968;42.686;23.352;2022-08-01T09:56:54;4.43;;;2.45;;
41233;SDS011;26968;42.686;23.352;2022-08-01T09:59:36;5.15;;;2.88;;
41233;SDS011;26968;42.686;23.352;2022-08-01T10:02:05;4.40;;;2.72;;
41233;SDS011;26968;42.686;23.352;2022-08-01T10:04:31;5.40;;;3.22;;
41233;SDS011;26968;42.686;23.352;2022-08-01T10:07:03;6.07;;;2.45;;
41233;SDS011;26968;42.686;23.352;2022-08-01T10:09:32;4.55;;;2.45;;
41233;SDS011;26968;42.686;23.352;2022-08-01T10:12:02;6.03;;;2.70;;
41233;SDS011;26968;42.686;23.352;2022-08-01T10:14:29;4.25;;;2.78;;
41233;SDS011;26968;42.686;23.352;2022-08-01T10:16:55;3.40;;;2.20;;
41233;SDS011;26968;42.686;23.352;2022-08-01T10:19:22;6.82;;;2.85;;
41233;SDS011;26968;42.686;23.352;2022-08-01T10:21:50;11.57;;;2.53;;
41233;SDS011;26968;42.686;23.352;2022-08-01T10:24:19;6.55;;;2.60;;
41233;SDS011;26968;42.686;23.352;2022-08-01T10:26:47;8.02;;;2.65;;
41233;SDS011;26968;42.686;23.352;2022-08-01T10:29:15;5.63;;;2.40;;
41233;SDS011;26968;42.686;23.352;2022-08-01T10:31:44;6.97;;;2.38;;
41233;SDS011;26968;42.686;23.352;2022-08-01T10:34:10;7.60;;;2.60;;
41233;SDS011;26968;42.686;23.352;2022-08-01T10:36:36;4.78;;;2.50;;
41233;SDS011;26968;42.686;23.352;2022-08-01T10:39:05;7.93;;;2.25;;
41233;SDS011;26968;42.686;23.352;2022-08-01T10:41:32;4.75;;;2.10;;
41233;SDS011;26968;42.686;23.352;2022-08-01T10:44:00;3.55;;;2.15;;
41233;SDS011;26968;42.686;23.352;2022-08-01T10:46:26;4.53;;;2.00;;
41233;SDS011;26968;42.686;23.352;2022-08-01T10:49:02;5.07;;;2.40;;
41233;SDS011;26968;42.686;23.352;2022-08-01T10:51:31;6.00;;;2.00;;
41233;SDS011;26968;42.686;23.352;2022-08-01T10:54:02;7.82;;;2.53;;
41233;SDS011;26968;42.686;23.352;2022-08-01T10:59:06;6.32;;;2.13;;
41233;SDS011;26968;42.686;23.352;2022-08-01T11:01:32;4.60;;;2.13;;
41233;SDS011;26968;42.686;23.352;2022-08-01T11:06:36;4.28;;;2.35;;
41233;SDS011;26968;42.686;23.352;2022-08-01T11:09:06;4.28;;;2.20;;
41233;SDS011;26968;42.686;23.352;2022-08-01T11:14:30;3.05;;;2.10;;
41233;SDS011;26968;42.686;23.352;2022-08-01T11:16:56;4.57;;;2.10;;
41233;SDS011;26968;42.686;23.352;2022-08-01T11:20:10;7.40;;;2.63;;
41233;SDS011;26968;42.686;23.352;2022-08-01T11:25:25;7.05;;;2.45;;
41233;SDS011;26968;42.686;23.352;2022-08-01T11:30:39;4.97;;;2.08;;
41233;SDS011;26968;42.686;23.352;2022-08-01T11:33:05;6.05;;;1.85;;
41233;SDS011;26968;42.686;23.352;2022-08-01T11:35:32;4.68;;;2.40;;
41233;SDS011;26968;42.686;23.352;2022-08-01T11:41:10;5.32;;;2.33;;
41233;SDS011;26968;42.686;23.352;2022-08-01T11:43:54;6.53;;;2.40;;
41233;SDS011;26968;42.686;23.352;2022-08-01T11:46:50;2.80;;;2.20;;
41233;SDS011;26968;42.686;23.352;2022-08-01T11:52:47;5.32;;;2.08;;
41233;SDS011;26968;42.686;23.352;2022-08-01T11:55:13;5.38;;;2.30;;
41233;SDS011;26968;42.686;23.352;2022-08-01T11:57:40;2.70;;;2.03;;
41233;SDS011;26968;42.686;23.352;2022-08-01T12:00:18;5.90;;;1.83;;
41233;SDS011;26968;42.686;23.352;2022-08-01T12:02:44;3.10;;;2.03;;
41233;SDS011;26968;42.686;23.352;2022-08-01T12:05:15;5.53;;;2.33;;
41233;SDS011;26968;42.686;23.352;2022-08-01T12:07:43;4.85;;;2.60;;
41233;SDS011;26968;42.686;23.352;2022-08-01T12:10:19;7.22;;;2.60;;
41233;SDS011;26968;42.686;23.352;2022-08-01T12:12:47;9.38;;;2.42;;
41233;SDS011;26968;42.686;23.352;2022-08-01T12:15:14;5.10;;;2.42;;
41233;SDS011;26968;42.686;23.352;2022-08-01T12:17:42;8.65;;;2.47;;
41233;SDS011;26968;42.686;23.352;2022-08-01T12:22:39;2.97;;;2.45;;
41233;SDS011;26968;42.686;23.352;2022-08-01T12:25:07;4.15;;;2.40;;
41233;SDS011;26968;42.686;23.352;2022-08-01T12:27:37;5.50;;;3.00;;
41233;SDS011;26968;42.686;23.352;2022-08-01T12:30:07;4.20;;;2.20;;
41233;SDS011;26968;42.686;23.352;2022-08-01T12:32:35;6.25;;;2.80;;
41233;SDS011;26968;42.686;23.352;2022-08-01T12:35:04;2.92;;;2.05;;
41233;SDS011;26968;42.686;23.352;2022-08-01T12:37:30;3.85;;;2.60;;
41233;SDS011;26968;42.686;23.352;2022-08-01T12:39:57;5.50;;;2.40;;
41233;SDS011;26968;42.686;23.352;2022-08-01T12:42:24;3.63;;;2.05;;
41233;SDS011;26968;42.686;23.352;2022-08-01T12:44:50;5.82;;;3.08;;
41233;SDS011;26968;42.686;23.352;2022-08-01T12:47:17;8.15;;;2.33;;
41233;SDS011;26968;42.686;23.352;2022-08-01T12:49:45;5.03;;;2.20;;
41233;SDS011;26968;42.686;23.352;2022-08-01T12:52:11;4.95;;;2.10;;
41233;SDS011;26968;42.686;23.352;2022-08-01T12:57:43;2.72;;;2.45;;
41233;SDS011;26968;42.686;23.352;2022-08-01T13:00:24;5.90;;;2.70;;
41233;SDS011;26968;42.686;23.352;2022-08-01T13:03:04;4.80;;;2.33;;
41233;SDS011;26968;42.686;23.352;2022-08-01T13:05:43;7.05;;;2.30;;
41233;SDS011;26968;42.686;23.352;2022-08-01T13:08:14;4.13;;;2.20;;
41233;SDS011;26968;42.686;23.352;2022-08-01T13:10:41;6.40;;;2.00;;
41233;SDS011;26968;42.686;23.352;2022-08-01T13:13:07;6.65;;;2.30;;
41233;SDS011;26968;42.686;23.352;2022-08-01T13:15:35;3.95;;;2.35;;
41233;SDS011;26968;42.686;23.352;2022-08-01T13:21:06;6.05;;;2.75;;
41233;SDS011;26968;42.686;23.352;2022-08-01T13:23:40;3.60;;;1.90;;
41233;SDS011;26968;42.686;23.352;2022-08-01T13:26:07;5.00;;;2.10;;
41233;SDS011;26968;42.686;23.352;2022-08-01T13:28:33;7.05;;;2.28;;
41233;SDS011;26968;42.686;23.352;2022-08-01T13:31:04;4.55;;;2.10;;
41233;SDS011;26968;42.686;23.352;2022-08-01T13:33:41;2.28;;;1.98;;
41233;SDS011;26968;42.686;23.352;2022-08-01T13:36:09;4.50;;;2.25;;
41233;SDS011;26968;42.686;23.352;2022-08-01T13:38:34;4.07;;;2.08;;
41233;SDS011;26968;42.686;23.352;2022-08-01T13:41:19;5.72;;;2.47;;
41233;SDS011;26968;42.686;23.352;2022-08-01T13:43:44;6.40;;;2.10;;
41233;SDS011;26968;42.686;23.352;2022-08-01T13:46:11;4.30;;;2.83;;
41233;SDS011;26968;42.686;23.352;2022-08-01T13:48:36;3.60;;;2.03;;
41233;SDS011;26968;42.686;23.352;2022-08-01T13:51:02;6.82;;;2.22;;
41233;SDS011;26968;42.686;23.352;2022-08-01T13:53:27;5.60;;;2.53;;
41233;SDS011;26968;42.686;23.352;2022-08-01T13:55:53;6.05;;;2.55;;
41233;SDS011;26968;42.686;23.352;2022-08-01T13:58:19;8.07;;;2.45;;
41233;SDS011;26968;42.686;23.352;2022-08-01T14:00:45;4.97;;;2.15;;
41233;SDS011;26968;42.686;23.352;2022-08-01T14:03:11;5.95;;;2.10;;
41233;SDS011;26968;42.686;23.352;2022-08-01T14:05:36;4.03;;;2.58;;
41233;SDS011;26968;42.686;23.352;2022-08-01T14:08:02;10.27;;;2.10;;
41233;SDS011;26968;42.686;23.352;2022-08-01T14:10:28;6.68;;;2.20;;
41233;SDS011;26968;42.686;23.352;2022-08-01T14:12:57;11.77;;;2.17;;
41233;SDS011;26968;42.686;23.352;2022-08-01T14:15:23;6.88;;;2.28;;
41233;SDS011;26968;42.686;23.352;2022-08-01T14:17:49;3.70;;;2.00;;
41233;SDS011;26968;42.686;23.352;2022-08-01T14:20:15;4.55;;;2.35;;
41233;SDS011;26968;42.686;23.352;2022-08-01T14:22:44;3.75;;;2.22;;
41233;SDS011;26968;42.686;23.352;2022-08-01T14:25:10;3.67;;;1.88;;
41233;SDS011;26968;42.686;23.352;2022-08-01T14:27:35;5.13;;;1.83;;
41233;SDS011;26968;42.686;23.352;2022-08-01T14:30:02;5.68;;;1.67;;
41233;SDS011;26968;42.686;23.352;2022-08-01T14:32:31;5.73;;;1.80;;
41233;SDS011;26968;42.686;23.352;2022-08-01T14:34:58;4.82;;;2.25;;
41233;SDS011;26968;42.686;23.352;2022-08-01T14:37:24;9.65;;;2.03;;
41233;SDS011;26968;42.686;23.352;2022-08-01T14:39:49;5.75;;;2.25;;
41233;SDS011;26968;42.686;23.352;2022-08-01T14:42:15;6.80;;;2.20;;
41233;SDS011;26968;42.686;23.352;2022-08-01T14:44:40;2.50;;;1.92;;
41233;SDS011;26968;42.686;23.352;2022-08-01T14:47:06;2.85;;;1.88;;
41233;SDS011;26968;42.686;23.352;2022-08-01T14:49:31;6.95;;;1.90;;
41233;SDS011;26968;42.686;23.352;2022-08-01T14:51:57;5.30;;;1.70;;
41233;SDS011;26968;42.686;23.352;2022-08-01T14:54:22;3.35;;;2.00;;
41233;SDS011;26968;42.686;23.352;2022-08-01T14:56:48;2.88;;;1.92;;
41233;SDS011;26968;42.686;23.352;2022-08-01T14:59:14;3.38;;;2.47;;
41233;SDS011;26968;42.686;23.352;2022-08-01T15:01:39;5.25;;;2.35;;
41233;SDS011;26968;42.686;23.352;2022-08-01T15:04:05;5.03;;;1.92;;
41233;SDS011;26968;42.686;23.352;2022-08-01T15:06:30;3.38;;;1.98;;
41233;SDS011;26968;42.686;23.352;2022-08-01T15:08:56;3.92;;;2.00;;
41233;SDS011;26968;42.686;23.352;2022-08-01T15:11:21;2.85;;;1.70;;
41233;SDS011;26968;42.686;23.352;2022-08-01T15:13:46;2.42;;;1.92;;
41233;SDS011;26968;42.686;23.352;2022-08-01T15:16:32;2.90;;;1.90;;
41233;SDS011;26968;42.686;23.352;2022-08-01T15:18:57;6.07;;;1.60;;
41233;SDS011;26968;42.686;23.352;2022-08-01T15:21:23;3.70;;;1.75;;
41233;SDS011;26968;42.686;23.352;2022-08-01T15:23:48;4.35;;;1.85;;